Time;durP1;ratioP1;P1;durP2;ratioP2;P2;SDS_P1;SDS_P2;PMS_P1;PMS_P2;Temp;Humidity;BMP_temperature;BMP_pressure;BME280_temperature;BME280_humidity;BME280_pressure;Samples;Min_cycle;Max_cycle;Signal;HPM_P1;HPM_P2
2023/12/10 00:00:32;;;;;;;37.13;12.67;;;9.60;99.90;;;;;;5031528;28;20804;-67
2023/12/10 00:02:59;;;;;;;37.13;12.70;;;9.70;99.90;;;;;;5031491;28;20483;-67
2023/12/10 00:05:26;;;;;;;28.00;11.10;;;9.70;99.90;;;;;;5031823;28;20823;-67
2023/12/10 00:07:54;;;;;;;25.57;12.20;;;9.70;99.90;;;;;;5031509;28;21019;-67
2023/12/10 00:10:21;;;;;;;25.00;10.30;;;9.70;99.90;;;;;;5031483;28;20454;-68
2023/12/10 00:12:48;;;;;;;38.83;12.23;;;9.70;99.90;;;;;;5031090;28;20513;-67
2023/12/10 00:15:15;;;;;;;29.30;11.17;;;9.70;99.90;;;;;;5031519;28;20546;-67
2023/12/10 00:17:42;;;;;;;38.30;10.67;;;9.80;99.90;;;;;;5031476;28;20485;-67
2023/12/10 00:20:10;;;;;;;29.37;10.07;;;9.80;99.90;;;;;;5031731;28;20534;-67
2023/12/10 00:22:36;;;;;;;32.33;9.03;;;9.80;99.90;;;;;;5031236;28;20866;-67
2023/12/10 00:25:06;;;;;;;28.97;6.97;;;9.80;99.90;;;;;;5031759;28;20463;-67
2023/12/10 00:27:33;;;;;;;20.37;6.93;;;9.80;99.90;;;;;;5035234;28;20916;-67
2023/12/10 00:29:59;;;;;;;32.23;8.67;;;9.80;99.90;;;;;;5035484;28;20904;-67
2023/12/10 00:32:26;;;;;;;32.60;8.60;;;9.80;99.90;;;;;;5035118;28;20457;-67
2023/12/10 00:34:53;;;;;;;23.93;6.43;;;9.70;99.90;;;;;;5035504;28;20460;-67
2023/12/10 00:37:20;;;;;;;29.13;8.40;;;9.70;99.90;;;;;;5035063;28;20480;-67
2023/12/10 00:39:47;;;;;;;32.00;7.87;;;9.60;99.90;;;;;;5035285;28;20887;-64
2023/12/10 00:42:15;;;;;;;27.77;9.23;;;9.50;99.90;;;;;;5034711;28;20532;-64
2023/12/10 00:44:42;;;;;;;25.27;8.07;;;9.50;99.90;;;;;;5035472;28;20556;-64
2023/12/10 00:47:09;;;;;;;29.07;8.27;;;9.50;99.90;;;;;;5035139;28;20451;-64
2023/12/10 00:49:36;;;;;;;35.03;8.03;;;9.60;99.90;;;;;;5035168;28;20464;-64
2023/12/10 00:52:03;;;;;;;29.77;7.63;;;9.60;99.90;;;;;;5034882;28;20539;-64
2023/12/10 00:54:32;;;;;;;26.33;7.80;;;9.70;99.90;;;;;;5034928;28;20461;-65
2023/12/10 00:57:00;;;;;;;32.70;7.03;;;9.70;99.90;;;;;;5034705;28;20489;-64
2023/12/10 00:59:28;;;;;;;24.10;6.93;;;9.80;99.90;;;;;;5035352;28;20483;-63
2023/12/10 01:01:55;;;;;;;26.27;7.57;;;9.80;99.90;;;;;;5034672;28;20453;-64
2023/12/10 01:04:23;;;;;;;37.90;8.20;;;9.80;99.90;;;;;;5034725;28;20541;-63
2023/12/10 01:06:50;;;;;;;39.23;7.30;;;9.80;99.90;;;;;;5034537;28;20930;-63
2023/12/10 01:09:17;;;;;;;31.77;7.27;;;9.90;99.90;;;;;;5034441;28;20456;-63
2023/12/10 01:11:44;;;;;;;22.17;8.50;;;9.80;99.90;;;;;;5034343;28;20450;-64
2023/12/10 01:14:11;;;;;;;21.67;6.67;;;10.00;99.90;;;;;;5034764;28;20561;-64
2023/12/10 01:16:40;;;;;;;28.57;6.87;;;9.90;99.90;;;;;;5034467;28;20490;-64
2023/12/10 01:19:07;;;;;;;36.27;7.10;;;9.90;99.90;;;;;;5034524;28;20450;-64
2023/12/10 01:21:34;;;;;;;29.97;9.23;;;9.90;99.90;;;;;;5034279;28;20450;-64
2023/12/10 01:24:02;;;;;;;24.73;6.70;;;9.90;99.90;;;;;;5034663;28;20452;-63
2023/12/10 01:26:29;;;;;;;43.17;9.00;;;9.90;99.90;;;;;;5034570;28;20446;-64
2023/12/10 01:28:56;;;;;;;28.13;7.70;;;9.90;99.90;;;;;;5034493;28;20458;-63
2023/12/10 01:31:23;;;;;;;26.43;7.37;;;9.90;99.90;;;;;;5034218;28;20455;-63
2023/12/10 01:33:51;;;;;;;23.43;8.43;;;9.90;99.90;;;;;;5034345;28;20518;-64
2023/12/10 01:36:23;;;;;;;32.83;6.13;;;9.90;99.90;;;;;;5033851;28;20568;-63
2023/12/10 01:38:50;;;;;;;23.50;7.20;;;10.00;99.90;;;;;;5033438;28;20455;-63
2023/12/10 01:41:19;;;;;;;31.03;7.13;;;10.00;99.90;;;;;;5034313;28;20876;-64
2023/12/10 01:43:46;;;;;;;26.07;6.33;;;10.00;99.90;;;;;;5034010;28;20461;-63
2023/12/10 01:46:13;;;;;;;25.70;5.40;;;10.00;99.90;;;;;;5034118;28;20448;-63
2023/12/10 01:48:42;;;;;;;27.20;7.83;;;10.00;99.90;;;;;;5033772;28;20942;-63
2023/12/10 01:51:10;;;;;;;21.43;5.60;;;10.00;99.90;;;;;;5034314;28;20455;-63
2023/12/10 01:53:38;;;;;;;23.37;3.93;;;10.00;99.90;;;;;;5033834;28;20527;-64
2023/12/10 01:56:07;;;;;;;30.33;7.43;;;10.10;99.90;;;;;;5033656;28;20452;-63
2023/12/10 01:58:35;;;;;;;20.80;5.80;;;10.10;99.90;;;;;;5033985;28;20454;-63
2023/12/10 02:01:04;;;;;;;24.83;5.60;;;10.00;99.90;;;;;;5033841;28;20451;-63
2023/12/10 02:03:32;;;;;;;23.07;5.60;;;10.00;99.90;;;;;;5033358;28;20452;-64
2023/12/10 02:05:59;;;;;;;16.30;5.33;;;10.00;99.90;;;;;;5033755;28;20456;-63
2023/12/10 02:08:28;;;;;;;22.80;5.13;;;10.00;99.90;;;;;;5033587;28;20454;-64
2023/12/10 02:10:55;;;;;;;14.63;4.20;;;10.00;99.90;;;;;;5033678;28;20554;-64
2023/12/10 02:13:23;;;;;;;23.97;4.77;;;10.00;99.90;;;;;;5033295;28;20452;-63
2023/12/10 02:15:50;;;;;;;26.77;5.73;;;10.00;99.90;;;;;;5033355;28;20455;-64
2023/12/10 02:18:19;;;;;;;17.80;4.50;;;10.00;99.90;;;;;;5033128;28;20493;-64
2023/12/10 02:20:47;;;;;;;28.97;5.37;;;10.00;99.90;;;;;;5033615;28;20455;-64
2023/12/10 02:23:26;;;;;;;20.90;4.10;;;10.00;99.90;;;;;;5033042;28;20838;-63
2023/12/10 02:25:54;;;;;;;24.70;5.57;;;9.90;99.90;;;;;;5033373;28;20447;-64
2023/12/10 02:28:22;;;;;;;16.27;4.50;;;9.90;99.90;;;;;;5033096;28;20449;-63
2023/12/10 02:30:49;;;;;;;22.30;6.13;;;9.90;99.90;;;;;;5033585;28;20481;-64
2023/12/10 02:33:16;;;;;;;39.23;5.03;;;9.90;99.90;;;;;;5032786;28;20458;-64
2023/12/10 02:35:42;;;;;;;22.80;4.57;;;9.90;99.90;;;;;;5033358;28;20539;-63
2023/12/10 02:38:09;;;;;;;22.93;5.90;;;9.90;99.90;;;;;;5032663;28;21001;-64
2023/12/10 02:40:36;;;;;;;18.20;4.60;;;9.90;99.90;;;;;;5032997;28;20545;-64
2023/12/10 02:43:04;;;;;;;14.80;3.73;;;9.90;99.90;;;;;;5032501;28;20476;-63
2023/12/10 02:45:31;;;;;;;19.57;4.90;;;9.90;99.90;;;;;;5033168;28;20456;-64
2023/12/10 02:47:58;;;;;;;17.53;3.83;;;9.90;99.90;;;;;;5032764;28;20450;-64
2023/12/10 02:50:25;;;;;;;21.17;4.27;;;9.90;99.90;;;;;;5031838;28;20454;-64
2023/12/10 02:52:52;;;;;;;17.33;3.67;;;9.90;99.90;;;;;;5032359;28;21048;-64
2023/12/10 02:55:19;;;;;;;22.00;4.33;;;9.90;99.90;;;;;;5032593;28;20458;-64
2023/12/10 02:57:46;;;;;;;19.00;4.00;;;9.90;99.90;;;;;;5032653;28;20489;-66
2023/12/10 03:00:15;;;;;;;12.40;3.33;;;9.80;99.90;;;;;;5032871;28;20452;-66
2023/12/10 03:02:42;;;;;;;22.70;4.70;;;9.80;99.90;;;;;;5032415;28;20545;-67
2023/12/10 03:05:09;;;;;;;19.13;4.33;;;9.60;99.90;;;;;;5032628;28;20449;-67
2023/12/10 03:07:36;;;;;;;13.87;3.30;;;9.10;99.90;;;;;;5032315;28;20523;-66
2023/12/10 03:10:03;;;;;;;22.83;4.73;;;9.20;99.90;;;;;;5032517;28;20861;-65
2023/12/10 03:12:30;;;;;;;14.10;3.40;;;9.10;99.90;;;;;;5032241;28;20458;-64
2023/12/10 03:14:57;;;;;;;24.03;5.80;;;9.00;99.90;;;;;;5032580;28;20539;-64
2023/12/10 03:17:25;;;;;;;19.47;5.90;;;8.80;99.90;;;;;;5032199;28;20480;-63
2023/12/10 03:19:52;;;;;;;12.10;3.93;;;8.80;99.90;;;;;;5032286;28;20453;-63
2023/12/10 03:22:19;;;;;;;21.37;5.30;;;8.80;99.90;;;;;;5031977;28;20457;-63
2023/12/10 03:24:46;;;;;;;40.63;5.33;;;8.70;99.90;;;;;;5032178;28;20448;-63
2023/12/10 03:27:12;;;;;;;21.00;5.27;;;8.70;99.90;;;;;;5032009;28;20909;-63
2023/12/10 03:29:39;;;;;;;23.03;6.37;;;8.60;99.90;;;;;;5031961;28;20452;-63
2023/12/10 03:32:07;;;;;;;25.17;6.83;;;8.60;99.90;;;;;;5031744;28;20456;-63
2023/12/10 03:34:35;;;;;;;26.07;9.97;;;8.50;99.90;;;;;;5032140;28;20467;-63
2023/12/10 03:37:02;;;;;;;21.93;6.50;;;8.40;99.90;;;;;;5031559;28;20481;-63
2023/12/10 03:39:28;;;;;;;23.20;8.47;;;8.40;99.90;;;;;;5032290;28;20548;-63
2023/12/10 03:41:55;;;;;;;23.10;15.60;;;8.20;99.90;;;;;;5031897;28;20483;-63
2023/12/10 03:44:22;;;;;;;20.13;18.37;;;8.20;99.90;;;;;;5031870;28;20456;-63
2023/12/10 03:46:49;;;;;;;26.00;23.47;;;8.20;99.90;;;;;;5031829;28;20451;-63
2023/12/10 03:49:16;;;;;;;59.60;55.83;;;8.20;99.90;;;;;;5031806;28;20824;-63
2023/12/10 03:51:44;;;;;;;137.90;131.00;;;8.20;99.90;;;;;;5031175;28;20458;-63
2023/12/10 03:54:11;;;;;;;143.63;137.37;;;8.20;99.90;;;;;;5031996;28;20459;-63
2023/12/10 03:56:38;;;;;;;187.73;180.30;;;8.20;99.90;;;;;;5031613;28;20535;-63
2023/12/10 03:59:04;;;;;;;290.67;280.33;;;8.20;99.90;;;;;;5031746;28;20452;-63
2023/12/10 04:01:31;;;;;;;221.90;213.57;;;8.10;99.90;;;;;;5030911;28;20455;-63
2023/12/10 04:03:58;;;;;;;150.97;143.27;;;8.20;99.90;;;;;;5032163;28;20447;-63
2023/12/10 04:06:26;;;;;;;153.30;146.07;;;8.20;99.90;;;;;;5031256;28;20457;-63
2023/12/10 04:08:55;;;;;;;179.20;171.57;;;8.20;99.90;;;;;;5031791;28;20494;-63
2023/12/10 04:11:25;;;;;;;98.30;93.90;;;8.20;99.90;;;;;;5031311;28;20448;-63
2023/12/10 04:13:52;;;;;;;81.20;77.17;;;8.20;99.90;;;;;;5031599;28;20516;-63
2023/12/10 04:16:26;;;;;;;79.17;73.93;;;8.30;99.90;;;;;;5031351;28;20448;-63
2023/12/10 04:18:53;;;;;;;48.77;44.97;;;8.30;99.90;;;;;;5031292;28;20480;-63
2023/12/10 04:21:21;;;;;;;75.77;70.90;;;8.40;99.90;;;;;;5031286;28;20454;-63
2023/12/10 04:23:47;;;;;;;74.87;70.50;;;8.30;99.90;;;;;;5031330;28;20479;-63
2023/12/10 04:26:17;;;;;;;54.93;51.37;;;8.30;99.90;;;;;;5031324;28;20450;-61
2023/12/10 04:28:44;;;;;;;56.57;52.47;;;8.40;99.90;;;;;;5031373;28;20444;-61
2023/12/10 04:31:12;;;;;;;74.93;70.27;;;8.40;99.90;;;;;;5031212;28;20863;-61
2023/12/10 04:33:38;;;;;;;66.43;62.53;;;8.30;99.90;;;;;;5030921;28;20947;-61
2023/12/10 04:36:06;;;;;;;52.03;47.97;;;8.40;99.90;;;;;;5031261;28;20450;-61
2023/12/10 04:38:33;;;;;;;50.83;47.33;;;8.40;99.90;;;;;;5031356;28;20873;-61
2023/12/10 04:41:00;;;;;;;68.40;62.07;;;8.40;99.90;;;;;;5031326;28;20543;-61
2023/12/10 04:43:28;;;;;;;45.70;42.30;;;8.40;99.90;;;;;;5030839;28;20927;-61
2023/12/10 04:45:55;;;;;;;46.07;42.20;;;8.30;99.90;;;;;;5030940;28;20540;-61
2023/12/10 04:48:22;;;;;;;43.47;40.40;;;8.50;99.90;;;;;;5031124;28;20507;-61
2023/12/10 04:50:49;;;;;;;40.17;37.10;;;8.50;99.90;;;;;;5031003;28;20457;-61
2023/12/10 04:53:16;;;;;;;52.50;48.33;;;8.60;99.90;;;;;;5030773;28;20948;-61
2023/12/10 04:55:44;;;;;;;45.77;42.23;;;8.60;99.90;;;;;;5031349;28;20798;-61
2023/12/10 04:58:11;;;;;;;39.00;29.63;;;8.60;99.90;;;;;;5030797;28;20475;-62
2023/12/10 05:00:39;;;;;;;23.00;17.17;;;8.60;99.90;;;;;;5031004;28;20536;-62
2023/12/10 05:03:06;;;;;;;26.97;17.10;;;8.80;99.90;;;;;;5030372;28;20448;-62
2023/12/10 05:05:33;;;;;;;26.70;14.40;;;8.80;99.90;;;;;;5031252;28;20454;-62
2023/12/10 05:07:59;;;;;;;29.07;17.13;;;8.80;99.90;;;;;;5031041;28;20480;-62
2023/12/10 05:10:26;;;;;;;21.23;8.67;;;8.80;99.90;;;;;;5030950;28;20457;-62
2023/12/10 05:12:53;;;;;;;22.50;11.57;;;8.90;99.90;;;;;;5032228;28;20465;-62
2023/12/10 05:15:20;;;;;;;18.30;7.70;;;8.90;99.90;;;;;;5034816;28;21008;-62
2023/12/10 05:17:48;;;;;;;44.37;8.93;;;9.00;99.90;;;;;;5034622;28;20473;-62
2023/12/10 05:20:15;;;;;;;29.30;6.77;;;9.10;99.90;;;;;;5034385;28;20463;-62
2023/12/10 05:22:42;;;;;;;19.40;6.97;;;9.10;99.90;;;;;;5034562;28;20457;-63
2023/12/10 05:25:11;;;;;;;14.93;4.93;;;9.10;99.90;;;;;;5034440;28;20455;-63
2023/12/10 05:27:38;;;;;;;29.97;5.60;;;9.20;99.90;;;;;;5034109;28;20526;-63
2023/12/10 05:30:05;;;;;;;25.83;5.50;;;9.30;99.90;;;;;;5034503;28;20460;-63
2023/12/10 05:32:32;;;;;;;18.37;6.33;;;9.30;99.90;;;;;;5033886;28;20452;-64
2023/12/10 05:35:00;;;;;;;12.90;4.20;;;9.20;99.90;;;;;;5034367;28;20536;-63
2023/12/10 05:37:27;;;;;;;13.63;3.57;;;9.30;99.90;;;;;;5033923;28;20565;-63
2023/12/10 05:39:54;;;;;;;15.07;3.43;;;9.30;99.90;;;;;;5034082;28;20459;-63
2023/12/10 05:42:21;;;;;;;23.33;6.73;;;9.40;99.90;;;;;;5033979;28;20455;-63
2023/12/10 05:44:48;;;;;;;17.83;4.33;;;9.40;99.90;;;;;;5034227;28;20450;-63
2023/12/10 05:47:15;;;;;;;16.73;4.73;;;9.30;99.90;;;;;;5033930;28;20536;-63
2023/12/10 05:49:42;;;;;;;14.33;3.83;;;9.30;99.90;;;;;;5034252;28;20459;-63
2023/12/10 05:52:10;;;;;;;22.00;5.53;;;9.40;99.80;;;;;;5033576;28;20457;-63
2023/12/10 05:54:37;;;;;;;14.47;4.00;;;9.40;98.60;;;;;;5033782;28;20455;-63
2023/12/10 05:57:03;;;;;;;13.90;4.27;;;9.40;97.80;;;;;;5034012;28;20820;-63
2023/12/10 05:59:30;;;;;;;12.57;3.00;;;9.50;97.90;;;;;;5033882;28;20585;-63
2023/12/10 06:01:57;;;;;;;15.63;3.70;;;9.50;97.90;;;;;;5033511;28;20504;-63
2023/12/10 06:04:24;;;;;;;27.07;4.17;;;9.50;97.90;;;;;;5033690;28;20449;-63
2023/12/10 06:06:51;;;;;;;18.63;4.60;;;9.50;97.90;;;;;;5033539;28;20813;-63
2023/12/10 06:09:20;;;;;;;14.33;4.00;;;9.50;97.90;;;;;;5033239;28;20462;-63
2023/12/10 06:11:46;;;;;;;20.53;3.90;;;9.50;97.90;;;;;;5016712;28;20456;-63
2023/12/10 06:14:13;;;;;;;20.03;4.47;;;9.60;97.90;;;;;;5012676;28;20987;-63
2023/12/10 06:16:40;;;;;;;14.60;4.07;;;9.50;97.90;;;;;;5012706;28;20800;-63
2023/12/10 06:19:07;;;;;;;20.30;5.07;;;9.50;97.90;;;;;;5012786;28;20569;-63
2023/12/10 06:21:34;;;;;;;22.90;5.27;;;9.50;97.90;;;;;;5012876;28;20486;-64
2023/12/10 06:24:01;;;;;;;15.63;3.80;;;9.50;97.90;;;;;;5013588;28;20467;-63
2023/12/10 06:26:29;;;;;;;22.50;4.20;;;9.60;97.90;;;;;;5013543;28;20451;-63
2023/12/10 06:28:56;;;;;;;26.23;4.23;;;9.60;97.90;;;;;;5013654;28;20882;-63
2023/12/10 06:31:23;;;;;;;17.23;4.10;;;9.60;97.90;;;;;;5013355;28;20454;-64
2023/12/10 06:33:50;;;;;;;22.03;4.57;;;9.70;97.90;;;;;;5013264;28;20875;-64
2023/12/10 06:36:17;;;;;;;18.83;4.30;;;9.60;97.90;;;;;;5013026;28;20947;-64
2023/12/10 06:38:44;;;;;;;14.47;3.43;;;9.60;97.90;;;;;;5013091;28;20574;-63
2023/12/10 06:41:11;;;;;;;17.83;4.00;;;9.60;97.90;;;;;;5013182;28;20456;-63
2023/12/10 06:43:39;;;;;;;26.13;4.83;;;9.70;97.90;;;;;;5012793;28;20550;-63
2023/12/10 06:46:07;;;;;;;18.63;3.33;;;9.70;97.90;;;;;;5012835;28;20448;-63
2023/12/10 06:48:34;;;;;;;20.30;4.63;;;9.70;99.90;;;;;;5013059;28;20444;-63
2023/12/10 06:51:02;;;;;;;20.10;4.30;;;9.70;99.90;;;;;;5012768;28;20502;-63
2023/12/10 06:53:31;;;;;;;17.40;4.27;;;9.70;99.90;;;;;;5012885;28;20455;-63
2023/12/10 06:55:59;;;;;;;26.17;5.30;;;9.70;99.90;;;;;;5012888;28;20456;-63
2023/12/10 06:58:25;;;;;;;24.13;4.20;;;9.70;99.90;;;;;;5012881;28;20484;-63
2023/12/10 07:00:56;;;;;;;32.57;6.10;;;9.70;99.60;;;;;;5013114;28;20562;-63
2023/12/10 07:03:23;;;;;;;22.23;4.57;;;9.80;98.90;;;;;;5012310;28;20466;-63
2023/12/10 07:05:50;;;;;;;19.97;4.20;;;9.70;99.50;;;;;;5013033;28;20452;-64
2023/12/10 07:08:17;;;;;;;20.50;4.30;;;9.70;97.90;;;;;;5012510;28;20539;-64
2023/12/10 07:10:44;;;;;;;19.50;4.33;;;9.70;97.90;;;;;;5012726;28;20459;-64
2023/12/10 07:13:11;;;;;;;22.33;4.20;;;9.70;97.90;;;;;;5012193;28;21011;-64
2023/12/10 07:15:38;;;;;;;10.87;3.20;;;9.70;97.90;;;;;;5012574;28;20452;-64
2023/12/10 07:18:06;;;;;;;18.83;3.73;;;9.70;97.90;;;;;;5012271;28;21036;-64
2023/12/10 07:20:36;;;;;;;21.07;5.07;;;9.70;97.90;;;;;;5012848;28;20828;-64
2023/12/10 07:23:03;;;;;;;22.43;5.30;;;9.80;98.00;;;;;;5011921;28;20475;-64
2023/12/10 07:25:30;;;;;;;23.27;4.23;;;9.70;97.90;;;;;;5012406;28;20518;-64
2023/12/10 07:27:56;;;;;;;14.20;3.80;;;9.80;98.00;;;;;;5012213;28;20947;-64
2023/12/10 07:30:23;;;;;;;18.30;4.57;;;9.80;98.00;;;;;;5011874;28;20449;-64
2023/12/10 07:32:50;;;;;;;16.20;4.07;;;9.80;98.00;;;;;;5011936;28;20468;-64
2023/12/10 07:35:19;;;;;;;25.97;5.53;;;9.80;98.00;;;;;;5011846;28;20503;-64
2023/12/10 07:37:46;;;;;;;13.93;4.30;;;9.80;98.00;;;;;;5011984;28;20515;-64
2023/12/10 07:40:13;;;;;;;16.47;4.07;;;9.80;98.00;;;;;;5011565;28;21014;-64
2023/12/10 07:42:40;;;;;;;15.33;4.03;;;9.80;98.00;;;;;;5011765;28;20447;-64
2023/12/10 07:45:08;;;;;;;23.97;5.70;;;9.90;98.00;;;;;;5011873;28;20448;-64
2023/12/10 07:47:35;;;;;;;17.23;3.90;;;9.90;98.00;;;;;;5011916;28;20483;-64
2023/12/10 07:50:02;;;;;;;11.53;2.73;;;9.90;98.00;;;;;;5012069;28;20514;-64
2023/12/10 07:52:30;;;;;;;16.20;3.67;;;9.80;98.00;;;;;;5011754;28;20452;-64
2023/12/10 07:54:57;;;;;;;11.70;2.80;;;9.80;97.90;;;;;;5012015;28;20483;-64
2023/12/10 07:57:24;;;;;;;23.70;7.67;;;9.80;97.90;;;;;;5011689;28;20448;-64
2023/12/10 07:59:51;;;;;;;17.03;4.60;;;9.80;97.90;;;;;;5011765;28;20572;-64
2023/12/10 08:02:18;;;;;;;17.80;4.40;;;9.80;96.30;;;;;;5011783;28;20995;-64
2023/12/10 08:04:45;;;;;;;27.50;4.07;;;9.80;97.50;;;;;;5011799;28;20462;-64
2023/12/10 08:07:12;;;;;;;11.17;3.13;;;9.80;96.80;;;;;;5011619;28;20488;-64
2023/12/10 08:09:40;;;;;;;23.50;6.33;;;9.80;96.40;;;;;;5011821;28;20449;-64
2023/12/10 08:12:07;;;;;;;16.80;4.50;;;9.80;97.60;;;;;;5011437;28;20453;-64
2023/12/10 08:14:35;;;;;;;19.60;3.80;;;9.80;97.50;;;;;;5011750;28;20453;-64
2023/12/10 08:17:02;;;;;;;22.77;5.03;;;9.80;97.90;;;;;;5011533;28;21008;-64
2023/12/10 08:19:29;;;;;;;15.20;4.50;;;9.80;96.30;;;;;;5011639;28;20843;-64
2023/12/10 08:21:56;;;;;;;15.70;3.50;;;9.80;97.10;;;;;;5011512;28;20459;-64
2023/12/10 08:24:23;;;;;;;16.43;4.00;;;9.80;96.50;;;;;;5011626;28;20514;-64
2023/12/10 08:26:52;;;;;;;20.53;3.43;;;9.80;97.20;;;;;;5011429;28;20468;-65
2023/12/10 08:29:19;;;;;;;19.03;3.40;;;9.70;97.90;;;;;;5011329;28;20451;-64
2023/12/10 08:31:46;;;;;;;18.47;4.30;;;9.80;97.50;;;;;;5011401;28;20451;-64
2023/12/10 08:34:13;;;;;;;14.20;3.30;;;9.80;97.90;;;;;;5011457;28;20498;-64
2023/12/10 08:36:40;;;;;;;22.63;3.97;;;9.90;95.10;;;;;;5010986;28;20821;-64
2023/12/10 08:39:08;;;;;;;14.30;4.00;;;9.80;97.50;;;;;;5011622;28;20983;-64
2023/12/10 08:41:35;;;;;;;20.23;3.07;;;9.80;96.20;;;;;;5030098;28;20567;-65
2023/12/10 08:44:03;;;;;;;18.73;3.10;;;9.80;98.00;;;;;;5030350;28;20939;-66
2023/12/10 08:46:30;;;;;;;11.73;3.30;;;9.80;98.00;;;;;;5031359;28;20449;-65
2023/12/10 08:48:57;;;;;;;9.83;2.97;;;9.80;97.90;;;;;;5034212;28;20446;-65
2023/12/10 08:51:24;;;;;;;16.87;4.47;;;9.90;96.30;;;;;;5034304;28;20466;-66
2023/12/10 08:53:51;;;;;;;15.13;2.70;;;9.90;97.10;;;;;;5034809;28;20455;-66
2023/12/10 08:56:18;;;;;;;18.52;4.85;;;9.80;98.00;;;;;;5034836;28;20453;-66
2023/12/10 08:58:46;;;;;;;21.58;5.18;;;9.90;96.30;;;;;;5036165;28;20464;-65
2023/12/10 09:01:14;;;;;;;24.10;4.70;;;9.80;98.00;;;;;;5037206;28;20207;-66
2023/12/10 09:03:42;;;;;;;17.40;3.60;;;9.80;98.00;;;;;;5033645;28;20455;-66
2023/12/10 09:06:09;;;;;;;14.20;3.87;;;9.80;97.80;;;;;;5034676;28;20456;-66
2023/12/10 09:08:36;;;;;;;16.33;3.80;;;9.90;96.20;;;;;;5034669;28;20465;-66
2023/12/10 09:11:04;;;;;;;23.47;4.07;;;9.90;98.00;;;;;;5035022;28;20463;-65
2023/12/10 09:13:31;;;;;;;18.00;4.10;;;9.90;98.00;;;;;;5034317;28;20455;-66
2023/12/10 09:16:01;;;;;;;12.43;3.53;;;9.90;96.30;;;;;;5034740;28;20461;-66
2023/12/10 09:18:29;;;;;;;15.73;3.80;;;10.00;97.60;;;;;;5034723;28;20451;-65
2023/12/10 09:20:56;;;;;;;28.17;5.80;;;10.00;97.60;;;;;;5034690;28;20483;-65
2023/12/10 09:23:23;;;;;;;13.80;4.60;;;10.00;97.60;;;;;;5034529;28;20850;-66
2023/12/10 09:25:50;;;;;;;17.53;3.47;;;10.10;97.60;;;;;;5034497;28;20448;-66
2023/12/10 09:28:17;;;;;;;20.07;5.50;;;10.10;97.60;;;;;;5034238;28;20452;-65
2023/12/10 09:30:44;;;;;;;20.80;4.40;;;10.10;97.60;;;;;;5034375;28;20947;-65
2023/12/10 09:33:11;;;;;;;33.97;6.37;;;10.20;97.70;;;;;;5034014;28;20464;-65
2023/12/10 09:35:42;;;;;;;16.67;5.30;;;10.10;97.70;;;;;;5034383;28;20451;-65
2023/12/10 09:38:10;;;;;;;19.00;4.00;;;10.20;97.70;;;;;;5034426;28;20963;-64
2023/12/10 09:40:38;;;;;;;16.93;3.87;;;10.20;97.70;;;;;;5034468;28;20537;-64
2023/12/10 09:43:05;;;;;;;16.10;4.70;;;10.30;97.70;;;;;;5034106;28;20448;-64
2023/12/10 09:45:35;;;;;;;20.07;4.20;;;10.20;97.70;;;;;;5034369;28;20448;-63
2023/12/10 09:48:03;;;;;;;19.73;3.87;;;10.40;97.80;;;;;;5034210;28;20455;-64
2023/12/10 09:50:32;;;;;;;21.90;4.43;;;10.50;97.80;;;;;;5034237;28;20448;-64
2023/12/10 09:53:00;;;;;;;20.33;3.67;;;10.60;97.80;;;;;;5034002;28;20452;-64
2023/12/10 09:55:27;;;;;;;22.93;4.60;;;10.70;97.90;;;;;;5034441;28;20447;-64
2023/12/10 09:57:54;;;;;;;25.77;5.80;;;10.80;97.90;;;;;;5033067;28;20448;-64
2023/12/10 10:00:21;;;;;;;19.87;4.03;;;10.90;97.80;;;;;;5033771;28;20751;-64
2023/12/10 10:02:48;;;;;;;23.37;4.30;;;10.90;98.00;;;;;;5033769;28;20543;-64
2023/12/10 10:05:16;;;;;;;21.50;5.80;;;11.00;94.80;;;;;;5034108;28;21078;-64
2023/12/10 10:07:43;;;;;;;22.53;4.37;;;11.00;96.30;;;;;;5033608;28;20483;-64
2023/12/10 10:10:13;;;;;;;26.30;5.10;;;11.00;95.30;;;;;;5033660;28;20527;-64
2023/12/10 10:12:40;;;;;;;28.97;4.30;;;11.10;98.00;;;;;;5033567;28;20989;-64
2023/12/10 10:15:08;;;;;;;14.17;3.90;;;11.20;96.90;;;;;;5033555;28;20474;-64
2023/12/10 10:17:37;;;;;;;18.00;5.57;;;11.20;98.10;;;;;;5033392;28;20452;-64
2023/12/10 10:20:05;;;;;;;20.90;4.23;;;11.10;98.10;;;;;;5033363;28;20484;-64
2023/12/10 10:22:33;;;;;;;22.83;7.20;;;11.10;98.10;;;;;;5033090;28;20970;-64
2023/12/10 10:25:00;;;;;;;22.20;3.97;;;11.00;97.70;;;;;;5033583;28;20538;-64
2023/12/10 10:27:31;;;;;;;31.23;5.53;;;11.10;98.00;;;;;;5033071;28;20823;-64
2023/12/10 10:29:58;;;;;;;23.60;5.00;;;11.10;98.10;;;;;;5033823;28;20455;-64
2023/12/10 10:32:27;;;;;;;25.27;5.30;;;11.20;98.10;;;;;;5033298;28;20452;-64
2023/12/10 10:34:55;;;;;;;34.53;6.50;;;11.20;98.10;;;;;;5033434;28;20448;-64
2023/12/10 10:37:22;;;;;;;21.77;5.37;;;11.30;98.10;;;;;;5033150;28;20966;-64
2023/12/10 10:39:49;;;;;;;23.13;5.33;;;11.20;98.10;;;;;;5032966;28;20471;-64
2023/12/10 10:42:19;;;;;;;15.77;5.17;;;11.10;98.10;;;;;;5032616;28;20970;-64
2023/12/10 10:44:47;;;;;;;20.53;4.87;;;11.00;98.00;;;;;;5033443;28;20826;-64
2023/12/10 10:47:15;;;;;;;20.17;4.13;;;11.10;98.10;;;;;;5032914;28;20485;-64
2023/12/10 10:49:46;;;;;;;16.70;5.27;;;11.20;98.10;;;;;;5032901;28;20861;-64
2023/12/10 10:52:16;;;;;;;25.90;5.70;;;11.20;98.10;;;;;;5032619;28;20456;-64
2023/12/10 10:54:44;;;;;;;22.87;4.53;;;11.00;98.00;;;;;;5032688;28;20447;-64
2023/12/10 10:57:11;;;;;;;16.50;4.90;;;10.90;98.00;;;;;;5032712;28;20837;-64
2023/12/10 10:59:38;;;;;;;21.93;4.67;;;10.90;98.00;;;;;;5033044;28;20910;-64
2023/12/10 11:02:08;;;;;;;26.80;6.40;;;11.10;98.10;;;;;;5032401;28;20451;-64
2023/12/10 11:04:39;;;;;;;25.90;6.37;;;11.40;98.20;;;;;;5032669;28;20932;-64
2023/12/10 11:07:06;;;;;;;29.50;5.50;;;11.50;98.20;;;;;;5032445;28;20444;-64
2023/12/10 11:09:53;;;;;;;20.77;5.30;;;11.50;98.20;;;;;;5031866;28;20960;-64
2023/12/10 11:12:45;;;;;;;19.67;4.57;;;11.50;98.20;;;;;;5032355;28;20483;-64
2023/12/10 11:15:23;;;;;;;24.23;5.60;;;11.40;98.20;;;;;;5032524;28;20498;-64
2023/12/10 11:17:52;;;;;;;17.90;4.97;;;11.40;98.20;;;;;;5032491;28;20452;-64
2023/12/10 11:20:34;;;;;;;28.27;5.43;;;11.50;98.60;;;;;;5032510;28;20487;-64
2023/12/10 11:23:03;;;;;;;25.97;6.27;;;11.50;98.20;;;;;;5032258;28;20502;-64
2023/12/10 11:25:30;;;;;;;14.67;5.13;;;11.60;98.30;;;;;;5032665;28;20950;-64
2023/12/10 11:27:57;;;;;;;24.07;5.17;;;11.60;98.30;;;;;;5032251;28;20928;-64
2023/12/10 11:30:25;;;;;;;18.97;4.57;;;12.00;98.40;;;;;;5032637;28;20448;-64
2023/12/10 11:32:54;;;;;;;34.83;6.43;;;12.40;94.20;;;;;;5031894;28;20471;-64
2023/12/10 11:35:21;;;;;;;23.47;4.33;;;12.30;94.10;;;;;;5032445;28;20534;-64
2023/12/10 11:37:47;;;;;;;30.13;5.60;;;12.10;94.80;;;;;;5031962;28;20448;-64
2023/12/10 11:40:14;;;;;;;23.73;5.93;;;12.00;96.00;;;;;;5031942;28;20480;-64
2023/12/10 11:42:41;;;;;;;13.93;4.27;;;11.90;98.20;;;;;;5031669;28;20448;-64
2023/12/10 11:45:09;;;;;;;19.43;5.30;;;12.00;98.00;;;;;;5032225;28;20447;-64
2023/12/10 11:47:36;;;;;;;18.87;3.80;;;11.80;96.60;;;;;;5031919;28;20479;-64
2023/12/10 11:50:09;;;;;;;25.67;7.50;;;12.00;95.50;;;;;;5031832;28;20454;-64
2023/12/10 11:52:36;;;;;;;20.03;5.53;;;12.00;96.40;;;;;;5031827;28;20462;-64
2023/12/10 11:55:04;;;;;;;24.23;5.33;;;12.40;95.30;;;;;;5031625;28;20983;-64
2023/12/10 11:57:31;;;;;;;15.93;5.03;;;12.50;94.50;;;;;;5031464;28;20480;-64
2023/12/10 11:59:58;;;;;;;25.83;4.80;;;12.60;95.20;;;;;;5031538;28;20919;-64
2023/12/10 12:02:25;;;;;;;25.60;5.23;;;12.70;95.40;;;;;;5031382;28;20456;-64
2023/12/10 12:04:52;;;;;;;20.20;4.47;;;12.60;95.40;;;;;;5032378;28;20448;-66
2023/12/10 12:07:28;;;;;;;23.13;5.93;;;12.30;95.30;;;;;;5031635;28;20444;-66
2023/12/10 12:09:55;;;;;;;31.87;5.90;;;12.20;98.50;;;;;;5031586;28;20479;-66
2023/12/10 12:12:22;;;;;;;36.60;7.10;;;12.10;98.50;;;;;;5031525;28;20822;-66
2023/12/10 12:14:50;;;;;;;25.03;6.07;;;12.00;98.40;;;;;;5031739;28;20480;-66
2023/12/10 12:17:19;;;;;;;34.93;7.33;;;11.90;98.40;;;;;;5031567;28;20455;-66
2023/12/10 12:19:46;;;;;;;21.57;4.70;;;11.80;98.30;;;;;;5031648;28;21011;-66
2023/12/10 12:22:13;;;;;;;21.80;5.93;;;11.70;98.30;;;;;;5035690;28;20538;-66
2023/12/10 12:24:43;;;;;;;21.97;5.50;;;11.70;98.30;;;;;;5038172;28;20453;-65
2023/12/10 12:27:11;;;;;;;23.10;6.20;;;11.70;98.30;;;;;;5038134;28;20458;-65
2023/12/10 12:29:38;;;;;;;24.30;5.63;;;11.60;98.30;;;;;;5037967;28;20939;-65
2023/12/10 12:32:06;;;;;;;27.23;6.30;;;11.50;98.20;;;;;;5037878;28;20509;-66
2023/12/10 12:34:33;;;;;;;25.07;6.53;;;11.50;98.20;;;;;;5037834;28;20491;-66
2023/12/10 12:37:00;;;;;;;30.33;5.87;;;11.40;98.20;;;;;;5037918;28;20458;-65
2023/12/10 12:39:27;;;;;;;28.63;7.87;;;11.30;98.30;;;;;;5038005;28;20462;-66
2023/12/10 12:41:55;;;;;;;25.53;6.07;;;11.20;98.10;;;;;;5037777;28;20483;-66